Time;durP1;ratioP1;P1;durP2;ratioP2;P2;SDS_P1;SDS_P2;PMS_P1;PMS_P2;Temp;Humidity;BMP_temperature;BMP_pressure;BME280_temperature;BME280_humidity;BME280_pressure;Samples;Min_cycle;Max_cycle;Signal;HPM_P1;HPM_P2
2021/11/08 00:00:56;;;;;;;8.10;5.40;;;;;;;7.98;70.32;99714.02;138997;1190;107358;-78
2021/11/08 00:04:01;;;;;;;10.20;5.60;;;;;;;7.93;70.28;99709.77;139157;1190;107216;-78
2021/11/08 00:07:07;;;;;;;7.50;4.70;;;;;;;7.88;70.26;99706.17;139199;1190;109139;-78
2021/11/08 00:10:12;;;;;;;8.90;5.20;;;;;;;7.85;70.38;99710.70;139128;1190;108485;-81
2021/11/08 00:13:18;;;;;;;10.70;5.20;;;;;;;7.83;70.45;99717.95;139154;1189;108501;-82
2021/11/08 00:16:31;;;;;;;8.50;5.20;;;;;;;7.84;70.45;99719.98;139282;1189;108332;-81
2021/11/08 00:23:00;;;;;;;8.20;5.40;;;;;;;7.78;70.53;99724.18;139339;1183;109420;-81
2021/11/08 00:26:06;;;;;;;12.00;5.20;;;;;;;7.76;70.81;99727.86;139294;1189;108461;-82
2021/11/08 00:29:11;;;;;;;7.90;5.20;;;;;;;7.73;70.72;99724.09;139201;1189;108553;-82
2021/11/08 00:32:17;;;;;;;8.90;5.00;;;;;;;7.71;70.83;99727.11;139186;1190;107355;-81
2021/11/08 00:35:22;;;;;;;8.10;5.30;;;;;;;7.73;70.97;99736.70;139152;1190;107579;-80
2021/11/08 00:38:28;;;;;;;7.90;4.90;;;;;;;7.76;71.11;99737.45;139192;1189;107471;-80
2021/11/08 00:41:34;;;;;;;8.10;5.20;;;;;;;7.80;71.50;99727.33;139143;1189;108385;-81
2021/11/08 00:44:39;;;;;;;12.20;5.70;;;;;;;7.80;71.58;99731.05;139129;1189;108828;-81
2021/11/08 00:47:45;;;;;;;8.50;5.50;;;;;;;7.79;71.69;99735.69;139193;1189;108563;-78
2021/11/08 00:50:53;;;;;;;7.80;5.70;;;;;;;7.80;71.85;99739.83;139251;1190;108706;-79
2021/11/08 00:53:59;;;;;;;9.40;5.30;;;;;;;7.81;71.80;99744.95;139143;1189;108580;-78
2021/11/08 00:57:09;;;;;;;9.70;4.80;;;;;;;7.81;71.83;99741.02;139150;1189;108554;-80
2021/11/08 01:00:16;;;;;;;9.60;5.40;;;;;;;7.84;71.88;99742.32;139099;1190;108127;-81
2021/11/08 01:03:22;;;;;;;8.20;5.20;;;;;;;7.86;72.02;99737.20;139286;1192;107196;-81
2021/11/08 01:06:28;;;;;;;7.90;5.20;;;;;;;7.87;72.04;99738.67;139240;1189;108420;-81
2021/11/08 01:09:33;;;;;;;9.70;5.70;;;;;;;7.90;71.96;99741.98;139144;1189;107992;-81
2021/11/08 01:12:39;;;;;;;8.60;4.90;;;;;;;7.89;72.07;99741.56;139127;1189;108553;-80
2021/11/08 01:15:44;;;;;;;9.10;5.00;;;;;;;7.85;72.25;99745.20;139190;1190;108148;-80
2021/11/08 01:18:52;;;;;;;9.50;5.40;;;;;;;7.81;72.30;99750.95;139080;1190;108892;-80
2021/11/08 01:22:05;;;;;;;7.90;5.00;;;;;;;7.82;72.32;99757.70;139115;1190;108851;-80
2021/11/08 01:25:12;;;;;;;9.60;5.20;;;;;;;7.86;72.65;99755.09;139148;1190;107966;-80
2021/11/08 01:28:18;;;;;;;7.70;4.50;;;;;;;7.92;72.38;99752.77;139161;1196;108372;-80
2021/11/08 01:31:24;;;;;;;9.20;5.80;;;;;;;7.96;72.29;99746.70;139090;1189;108658;-79
2021/11/08 01:34:30;;;;;;;7.40;5.40;;;;;;;7.94;72.34;99742.57;139170;1190;109370;-82
2021/11/08 01:37:37;;;;;;;7.40;4.50;;;;;;;7.93;72.42;99748.23;139351;1189;108669;-81
2021/11/08 01:40:44;;;;;;;9.20;4.80;;;;;;;7.92;72.17;99752.20;139259;1190;108191;-80
2021/11/08 01:43:50;;;;;;;8.70;5.60;;;;;;;7.95;72.07;99752.63;139261;1190;108429;-81
2021/11/08 01:46:56;;;;;;;9.20;4.90;;;;;;;7.98;72.17;99755.90;139286;1189;107320;-80
2021/11/08 01:50:01;;;;;;;8.70;5.50;;;;;;;8.02;72.27;99752.27;139207;1189;108462;-82
2021/11/08 01:53:07;;;;;;;7.80;5.50;;;;;;;8.07;72.13;99756.04;139267;1181;108339;-80
2021/11/08 01:56:14;;;;;;;8.30;5.80;;;;;;;8.10;72.09;99761.80;139096;1189;108407;-78
2021/11/08 01:59:19;;;;;;;9.80;5.70;;;;;;;8.08;72.06;99762.85;139125;1190;108475;-77
2021/11/08 02:02:26;;;;;;;7.90;4.90;;;;;;;8.03;72.00;99763.48;139122;1190;108792;-77
2021/11/08 02:05:31;;;;;;;7.40;4.60;;;;;;;8.02;72.27;99763.48;139245;1189;108395;-78
2021/11/08 02:08:38;;;;;;;10.70;4.80;;;;;;;8.02;72.27;99766.77;139092;1190;108620;-79
2021/11/08 02:11:44;;;;;;;7.10;4.50;;;;;;;8.05;72.21;99765.95;139154;1190;106877;-80
2021/11/08 02:14:50;;;;;;;8.80;4.90;;;;;;;8.09;72.07;99770.38;139195;1190;108024;-82
2021/11/08 02:17:55;;;;;;;10.60;5.90;;;;;;;8.13;72.27;99770.69;139227;1189;107334;-75
2021/11/08 02:21:02;;;;;;;7.50;5.10;;;;;;;8.13;72.31;99771.81;139122;1190;109596;-75
2021/11/08 02:24:14;;;;;;;9.60;5.00;;;;;;;8.12;72.22;99772.41;139146;1189;107606;-75
2021/11/08 02:27:21;;;;;;;7.00;4.40;;;;;;;8.09;72.24;99774.11;139095;1191;107392;-76
2021/11/08 02:30:32;;;;;;;8.40;4.60;;;;;;;8.07;72.25;99776.77;139234;1190;108344;-78
2021/11/08 02:33:38;;;;;;;8.10;4.80;;;;;;;8.09;72.30;99777.98;139144;1189;108374;-81
2021/11/08 02:36:44;;;;;;;6.60;4.80;;;;;;;8.13;72.32;99778.85;139232;1189;108395;-81
2021/11/08 02:39:51;;;;;;;8.30;4.70;;;;;;;8.17;72.24;99782.38;139371;1190;106193;-81
2021/11/08 02:42:59;;;;;;;8.20;4.70;;;;;;;8.19;72.32;99787.69;139260;1189;107095;-81
2021/11/08 02:46:08;;;;;;;10.50;5.10;;;;;;;8.17;72.25;99794.57;139258;1190;108450;-80
2021/11/08 02:49:15;;;;;;;8.50;5.50;;;;;;;8.13;72.16;99792.02;139323;1189;105658;-81
2021/11/08 02:52:24;;;;;;;9.00;4.80;;;;;;;8.11;72.16;99795.38;139191;1191;108329;-82
2021/11/08 02:55:30;;;;;;;9.20;4.50;;;;;;;8.11;72.33;99796.77;139289;1189;107369;-76
2021/11/08 02:58:37;;;;;;;10.40;4.60;;;;;;;8.14;72.44;99797.77;139218;1190;108360;-77
2021/11/08 03:01:46;;;;;;;7.60;4.60;;;;;;;8.19;72.26;99800.38;139203;1190;108153;-78
2021/11/08 03:04:53;;;;;;;7.30;4.40;;;;;;;8.22;72.18;99800.09;139222;1182;108718;-80
2021/11/08 03:08:00;;;;;;;8.20;5.20;;;;;;;8.24;72.26;99799.95;139151;1190;108718;-78
2021/11/08 03:11:06;;;;;;;8.30;5.20;;;;;;;8.23;72.09;99796.13;139144;1189;108847;-75
2021/11/08 03:14:14;;;;;;;8.40;4.30;;;;;;;8.21;72.16;99806.25;139127;1189;107177;-79
2021/11/08 03:17:23;;;;;;;14.00;4.70;;;;;;;8.19;72.22;99804.11;139097;1189;107142;-80
2021/11/08 03:20:29;;;;;;;10.90;4.80;;;;;;;8.20;72.24;99809.04;139114;1189;107045;-79
2021/11/08 03:23:34;;;;;;;8.10;5.80;;;;;;;8.21;72.32;99812.27;139116;1189;108398;-79
2021/11/08 03:26:44;;;;;;;7.00;4.70;;;;;;;8.26;72.14;99811.27;139130;1190;108633;-79
2021/11/08 03:29:51;;;;;;;8.60;5.30;;;;;;;8.29;72.11;99813.65;139188;1189;107930;-77
2021/11/08 03:32:58;;;;;;;8.10;5.10;;;;;;;8.28;72.13;99818.66;139102;1189;107020;-79
2021/11/08 03:36:04;;;;;;;10.10;5.50;;;;;;;8.26;72.09;99825.05;138973;1190;107083;-80
2021/11/08 03:39:11;;;;;;;12.60;6.70;;;;;;;8.20;72.09;99830.02;139178;1189;108474;-80
2021/11/08 03:42:17;;;;;;;8.80;5.10;;;;;;;8.18;72.13;99831.16;139132;1190;107130;-76
2021/11/08 03:45:24;;;;;;;7.80;5.30;;;;;;;8.20;72.37;99838.77;139189;1189;108360;-78
2021/11/08 03:48:29;;;;;;;8.50;5.40;;;;;;;8.25;72.23;99841.45;139192;1190;108309;-80
2021/11/08 03:51:35;;;;;;;8.10;5.70;;;;;;;8.28;72.30;99843.85;139227;1189;107076;-80
2021/11/08 03:54:40;;;;;;;10.60;6.30;;;;;;;8.31;72.25;99844.83;139314;1190;107914;-78
2021/11/08 03:57:48;;;;;;;8.70;6.00;;;;;;;8.31;72.11;99844.34;139274;1190;108319;-78
2021/11/08 04:00:54;;;;;;;11.50;6.30;;;;;;;8.29;72.16;99843.56;139236;1190;107418;-81
2021/11/08 04:04:00;;;;;;;10.40;5.80;;;;;;;8.24;72.27;99844.45;139268;1190;108562;-80
2021/11/08 04:07:06;;;;;;;9.60;4.70;;;;;;;8.22;72.25;99850.15;139503;1189;108356;-81
2021/11/08 04:10:14;;;;;;;9.20;5.40;;;;;;;8.22;72.15;99849.59;139497;1189;108197;-83
2021/11/08 04:13:21;;;;;;;9.70;6.10;;;;;;;8.25;72.21;99853.67;139562;1189;108405;-82
2021/11/08 04:16:29;;;;;;;9.20;6.10;;;;;;;8.26;72.20;99858.34;139260;1189;108426;-81
2021/11/08 04:19:35;;;;;;;9.20;5.40;;;;;;;8.29;72.24;99856.58;139225;1189;108266;-82
2021/11/08 04:22:40;;;;;;;8.50;6.10;;;;;;;8.26;72.30;99863.31;139317;1190;108481;-83
2021/11/08 04:25:46;;;;;;;9.40;5.90;;;;;;;8.24;72.27;99862.52;139322;1197;108361;-82
2021/11/08 04:28:54;;;;;;;11.00;6.20;;;;;;;8.18;72.45;99867.14;139238;1190;108425;-82
2021/11/08 04:31:59;;;;;;;8.70;5.10;;;;;;;8.17;72.43;99864.42;139190;1196;108548;-83
2021/11/08 04:35:11;;;;;;;9.90;5.80;;;;;;;8.19;72.31;99867.03;139238;1189;108566;-82
2021/11/08 04:38:27;;;;;;;11.70;6.00;;;;;;;8.19;72.32;99869.15;139249;1183;106972;-82
2021/11/08 04:41:40;;;;;;;8.30;5.20;;;;;;;8.24;72.36;99868.89;139295;1190;108573;-83
2021/11/08 04:45:04;;;;;;;16.30;7.30;;;;;;;8.25;72.22;99869.61;139197;1190;107267;-82
2021/11/08 04:48:34;;;;;;;9.70;5.80;;;;;;;8.22;72.29;99877.16;139218;1192;107261;-81
2021/11/08 04:51:49;;;;;;;8.30;5.30;;;;;;;8.18;72.45;99884.17;139322;1196;108108;-82
2021/11/08 04:55:01;;;;;;;7.70;4.60;;;;;;;8.18;72.35;99887.70;139180;1190;108538;-82
2021/11/08 04:58:42;;;;;;;10.60;4.90;;;;;;;8.17;72.44;99889.05;139209;1190;108315;-83
2021/11/08 05:22:15;;;;;;;11.30;5.10;;;;;;;8.24;72.16;99906.36;139198;1189;107506;-81
2021/11/08 05:25:32;;;;;;;12.40;5.70;;;;;;;8.22;72.11;99909.23;139172;1193;108645;-82
2021/11/08 05:28:44;;;;;;;13.30;6.00;;;;;;;8.23;72.22;99909.70;139289;1190;107290;-82
2021/11/08 05:31:52;;;;;;;10.70;6.60;;;;;;;8.26;72.17;99911.02;139240;1184;107441;-81
2021/11/08 05:34:57;;;;;;;74.50;43.20;;;;;;;8.31;72.08;99914.31;139215;1189;108276;-82
2021/11/08 05:38:08;;;;;;;133.50;87.50;;;;;;;8.36;72.02;99915.23;139314;1189;108550;-82
2021/11/08 05:41:14;;;;;;;23.80;13.30;;;;;;;8.38;71.94;99918.55;139265;1190;108477;-82
2021/11/08 05:44:19;;;;;;;12.50;7.60;;;;;;;8.36;71.96;99920.76;139229;1190;108675;-82
2021/11/08 05:47:25;;;;;;;44.00;29.40;;;;;;;8.32;71.97;99923.90;139325;1191;108220;-80
2021/11/08 05:50:31;;;;;;;34.50;20.70;;;;;;;8.28;71.83;99925.55;139295;1189;108486;-81
2021/11/08 05:53:37;;;;;;;65.90;36.60;;;;;;;8.26;72.04;99926.94;139213;1190;108460;-83
2021/11/08 05:56:55;;;;;;;198.30;88.30;;;;;;;8.29;72.00;99931.69;139286;1191;108144;-82
2021/11/08 06:51:03;;;;;;;71.60;44.70;;;;;;;8.36;73.36;100013.99;139118;1190;108496;-81
2021/11/08 06:54:09;;;;;;;82.80;52.00;;;;;;;8.40;73.57;100013.34;139097;1190;107477;-80
2021/11/08 06:57:16;;;;;;;138.20;90.40;;;;;;;8.45;73.68;100011.34;139096;1191;108857;-81
2021/11/08 07:00:24;;;;;;;77.90;49.60;;;;;;;8.46;73.91;100020.30;139099;1191;108541;-81
2021/11/08 07:03:30;;;;;;;124.00;71.40;;;;;;;8.45;73.74;100021.81;139006;1196;107439;-80
2021/11/08 07:06:35;;;;;;;124.00;67.90;;;;;;;8.48;73.83;100024.39;138986;1190;108381;-80
2021/11/08 07:09:41;;;;;;;185.60;105.10;;;;;;;8.52;73.84;100027.02;139215;1191;108543;-80
2021/11/08 07:12:47;;;;;;;161.90;94.10;;;;;;;8.58;73.90;100024.79;139097;1191;108379;-80
2021/11/08 07:15:53;;;;;;;388.50;259.30;;;;;;;8.68;73.77;100025.50;139113;1190;108951;-81
2021/11/08 07:18:58;;;;;;;125.30;74.70;;;;;;;8.69;73.78;100026.95;139100;1190;108389;-80
2021/11/08 07:22:04;;;;;;;110.70;65.00;;;;;;;8.71;73.72;100024.88;139101;1198;108581;-81
2021/11/08 07:25:11;;;;;;;69.50;41.90;;;;;;;8.71;73.82;100028.90;139087;1193;108312;-80
2021/11/08 07:28:17;;;;;;;203.40;109.70;;;;;;;8.70;73.95;100038.29;139049;1190;107355;-81
2021/11/08 07:31:22;;;;;;;60.90;37.20;;;;;;;8.69;73.98;100032.66;139011;1190;108690;-82
2021/11/08 07:34:28;;;;;;;123.30;80.80;;;;;;;8.72;73.81;100034.16;139039;1190;108523;-80
2021/11/08 07:37:33;;;;;;;122.30;78.50;;;;;;;8.76;73.77;100044.92;139167;1190;108555;-80
2021/11/08 07:40:39;;;;;;;116.10;70.60;;;;;;;8.76;73.75;100045.46;139097;1190;108544;-80
2021/11/08 07:43:47;;;;;;;204.60;121.80;;;;;;;8.72;73.75;100056.13;139002;1198;108653;-81
2021/11/08 07:46:53;;;;;;;188.50;92.10;;;;;;;8.66;73.98;100058.46;139071;1191;106662;-80
2021/11/08 07:49:58;;;;;;;206.20;78.30;;;;;;;8.60;74.10;100061.84;139068;1190;108556;-80
2021/11/08 07:53:04;;;;;;;80.40;52.10;;;;;;;8.58;74.10;100063.15;139077;1190;108431;-81
2021/11/08 07:56:09;;;;;;;198.40;104.50;;;;;;;8.63;74.06;100064.21;139155;1183;108492;-79
2021/11/08 07:59:15;;;;;;;105.30;56.60;;;;;;;8.66;73.93;100070.91;138970;1197;108586;-81
2021/11/08 08:02:21;;;;;;;89.30;57.40;;;;;;;8.71;74.16;100077.05;138986;1191;108768;-80
2021/11/08 08:05:26;;;;;;;43.00;28.80;;;;;;;8.68;74.11;100082.39;139126;1190;108594;-81
2021/11/08 08:08:34;;;;;;;28.10;21.80;;;;;;;8.67;74.13;100084.11;139118;1198;107367;-81
2021/11/08 08:11:39;;;;;;;9.30;6.10;;;;;;;8.65;74.06;100085.45;139082;1190;108316;-80
2021/11/08 08:14:45;;;;;;;10.20;7.90;;;;;;;8.71;74.31;100090.52;139091;1190;108534;-81
2021/11/08 08:17:50;;;;;;;34.80;31.10;;;;;;;8.76;74.16;100100.77;139124;1190;108475;-80
2021/11/08 08:20:56;;;;;;;105.90;72.00;;;;;;;8.81;74.15;100095.68;139033;1190;107083;-81
2021/11/08 08:24:03;;;;;;;29.60;18.00;;;;;;;8.89;73.92;100094.11;139074;1190;108618;-80
2021/11/08 08:27:09;;;;;;;29.10;22.60;;;;;;;8.95;74.01;100095.77;139127;1190;107547;-78
2021/11/08 08:30:16;;;;;;;103.20;73.20;;;;;;;8.99;73.96;100097.75;138949;1190;108225;-81
2021/11/08 08:33:21;;;;;;;72.60;47.40;;;;;;;9.05;74.05;100099.14;139146;1190;106917;-81
2021/11/08 08:36:27;;;;;;;260.50;156.90;;;;;;;9.10;73.87;100101.27;139144;1190;108624;-79
2021/11/08 08:39:32;;;;;;;111.80;75.90;;;;;;;9.17;73.79;100098.48;138938;1190;108346;-82
2021/11/08 08:42:38;;;;;;;171.30;119.50;;;;;;;9.20;73.69;100100.64;138983;1190;108536;-81
2021/11/08 08:45:43;;;;;;;76.10;56.70;;;;;;;9.26;73.84;100105.27;139095;1190;108605;-80
2021/11/08 08:48:50;;;;;;;169.00;91.10;;;;;;;9.27;73.66;100107.70;139071;1190;108450;-81
2021/11/08 08:51:56;;;;;;;40.10;26.90;;;;;;;9.28;73.52;100115.77;139114;1190;108425;-82
2021/11/08 08:55:01;;;;;;;10.70;7.80;;;;;;;9.24;73.47;100117.05;139058;1190;108577;-79
2021/11/08 08:58:07;;;;;;;32.10;20.70;;;;;;;9.18;73.42;100124.98;138929;1190;108408;-80
2021/11/08 09:01:13;;;;;;;36.70;26.30;;;;;;;9.13;73.43;100128.53;139401;1190;106541;-81
2021/11/08 09:04:18;;;;;;;94.10;61.30;;;;;;;9.17;73.37;100132.58;139112;1190;108434;-80
2021/11/08 09:07:24;;;;;;;141.30;84.90;;;;;;;9.26;73.34;100137.61;139133;1190;108613;-81
2021/11/08 09:10:32;;;;;;;135.50;81.40;;;;;;;9.35;73.44;100137.58;139105;1192;108628;-81
2021/11/08 09:13:39;;;;;;;71.10;44.10;;;;;;;9.43;73.11;100139.77;139145;1191;108466;-81
2021/11/08 09:16:44;;;;;;;107.40;68.50;;;;;;;9.52;73.09;100143.77;139110;1190;108181;-81
2021/11/08 09:19:49;;;;;;;98.80;58.10;;;;;;;9.50;73.04;100147.58;139078;1190;108395;-81
2021/11/08 09:22:55;;;;;;;240.00;120.00;;;;;;;9.45;73.03;100148.86;139088;1190;108707;-81
2021/11/08 09:26:01;;;;;;;18.80;11.20;;;;;;;9.41;73.12;100151.91;139105;1190;108034;-81
2021/11/08 09:29:06;;;;;;;18.50;14.10;;;;;;;9.38;73.03;100153.29;139119;1190;108576;-80
2021/11/08 09:32:12;;;;;;;9.70;7.70;;;;;;;9.40;73.31;100160.20;139333;1190;108691;-81
2021/11/08 09:35:17;;;;;;;11.50;8.90;;;;;;;9.40;73.43;100163.32;139085;1190;108425;-80
2021/11/08 09:38:24;;;;;;;10.30;7.20;;;;;;;9.41;73.42;100161.83;138998;1190;107574;-81
2021/11/08 09:41:33;;;;;;;52.50;39.10;;;;;;;9.45;73.48;100164.16;139067;1190;108490;-80
2021/11/08 09:44:39;;;;;;;66.60;44.90;;;;;;;9.53;73.49;100163.60;139074;1190;108506;-80
2021/11/08 09:47:47;;;;;;;25.00;17.60;;;;;;;9.64;73.38;100164.04;138999;1190;108533;-80
2021/11/08 09:50:53;;;;;;;27.40;21.10;;;;;;;9.64;72.60;100166.39;139110;1190;108484;-80
2021/11/08 09:53:59;;;;;;;13.50;8.90;;;;;;;9.55;72.98;100168.69;139077;1190;107782;-78
2021/11/08 09:57:05;;;;;;;7.90;5.60;;;;;;;9.61;73.20;100165.23;138939;1190;108436;-80
2021/11/08 10:00:19;;;;;;;7.30;4.90;;;;;;;9.66;72.97;100170.45;139065;1190;108410;-80
2021/11/08 10:03:28;;;;;;;6.90;4.60;;;;;;;9.57;73.13;100177.73;139161;1190;108035;-80
2021/11/08 10:06:36;;;;;;;10.40;8.10;;;;;;;9.44;73.39;100185.57;139038;1197;108351;-81
2021/11/08 10:10:03;;;;;;;17.30;12.30;;;;;;;9.38;73.89;100183.92;139163;1190;108601;-80
2021/11/08 10:13:12;;;;;;;14.20;10.40;;;;;;;9.41;73.80;100190.11;138660;1193;108455;-80
2021/11/08 10:16:20;;;;;;;9.10;5.90;;;;;;;9.40;73.92;100191.64;138614;1193;108479;-79
2021/11/08 10:19:26;;;;;;;11.20;9.10;;;;;;;9.43;73.87;100197.03;138561;1193;108525;-81
2021/11/08 10:22:33;;;;;;;10.80;8.40;;;;;;;9.48;73.93;100192.13;138594;1193;108603;-80
2021/11/08 10:25:40;;;;;;;7.70;6.10;;;;;;;9.52;73.71;100197.22;138701;1193;108050;-78
2021/11/08 10:28:52;;;;;;;11.50;8.40;;;;;;;9.44;73.70;100199.52;138568;1193;108514;-79
2021/11/08 10:32:00;;;;;;;9.90;6.50;;;;;;;9.44;73.93;100203.48;138882;1190;108422;-80
2021/11/08 10:35:11;;;;;;;9.90;8.10;;;;;;;9.51;73.74;100207.78;139025;1190;108382;-80
2021/11/08 10:38:19;;;;;;;11.20;8.30;;;;;;;9.56;73.73;100207.98;139126;1190;108434;-79
2021/11/08 10:41:27;;;;;;;8.60;6.00;;;;;;;9.57;73.55;100211.96;139021;1181;108442;-80
2021/11/08 10:44:34;;;;;;;14.70;11.40;;;;;;;9.54;73.71;100211.55;139103;1192;109140;-79
2021/11/08 10:47:40;;;;;;;8.70;5.70;;;;;;;9.51;73.77;100213.84;138942;1190;108446;-78
2021/11/08 10:50:45;;;;;;;16.60;11.00;;;;;;;9.42;73.84;100213.95;139004;1196;108598;-80
2021/11/08 10:53:57;;;;;;;11.50;8.20;;;;;;;9.41;73.85;100207.99;139145;1190;107381;-80
2021/11/08 10:57:06;;;;;;;20.90;14.90;;;;;;;9.39;73.96;100210.13;139105;1183;108274;-80
2021/11/08 11:00:15;;;;;;;14.10;9.90;;;;;;;9.49;74.01;100210.63;139073;1190;108415;-81
2021/11/08 11:03:23;;;;;;;26.40;18.90;;;;;;;9.58;73.84;100217.18;139122;1184;108439;-80
2021/11/08 11:06:41;;;;;;;177.10;75.00;;;;;;;9.65;73.46;100218.85;139123;1182;107568;-81
2021/11/08 11:09:47;;;;;;;101.70;45.00;;;;;;;9.71;73.57;100224.51;139135;1190;108153;-80
2021/11/08 11:12:53;;;;;;;125.70;53.50;;;;;;;9.69;73.36;100224.73;139048;1190;108532;-80
2021/11/08 11:16:02;;;;;;;367.30;131.30;;;;;;;9.63;73.35;100225.23;138985;1190;108626;-79
2021/11/08 11:19:10;;;;;;;105.20;49.00;;;;;;;9.64;73.26;100228.92;138969;1190;108579;-79
2021/11/08 11:22:21;;;;;;;60.00;39.90;;;;;;;9.74;73.49;100227.98;139071;1190;108544;-80
2021/11/08 11:25:31;;;;;;;18.50;13.30;;;;;;;9.82;73.56;100224.31;139123;1190;107048;-80
2021/11/08 11:28:41;;;;;;;9.60;6.40;;;;;;;9.94;73.25;100219.08;139187;1190;108243;-79
2021/11/08 11:31:46;;;;;;;8.50;6.20;;;;;;;10.03;73.51;100222.14;139067;1190;108424;-80
2021/11/08 11:34:52;;;;;;;7.90;6.10;;;;;;;10.14;73.20;100219.64;139081;1190;107520;-80
2021/11/08 11:38:02;;;;;;;9.10;5.70;;;;;;;10.19;73.13;100211.62;139127;1190;108546;-80
2021/11/08 11:41:11;;;;;;;6.90;4.70;;;;;;;10.16;73.30;100214.48;139149;1190;107418;-81
2021/11/08 11:44:20;;;;;;;6.80;5.00;;;;;;;10.22;73.03;100219.56;139108;1190;108413;-80
2021/11/08 11:47:25;;;;;;;5.40;4.60;;;;;;;10.32;72.99;100221.46;139062;1190;108474;-80
2021/11/08 11:50:33;;;;;;;7.30;5.20;;;;;;;10.35;72.92;100224.19;139097;1190;107471;-80
2021/11/08 11:53:39;;;;;;;9.00;5.80;;;;;;;10.35;72.61;100233.02;139043;1190;106632;-80
2021/11/08 11:56:46;;;;;;;7.70;5.20;;;;;;;10.27;72.83;100238.96;138999;1190;108618;-79
2021/11/08 11:59:52;;;;;;;7.30;5.60;;;;;;;10.22;72.87;100242.81;139008;1190;108507;-80
2021/11/08 12:02:59;;;;;;;7.10;5.40;;;;;;;10.16;73.14;100247.14;139124;1190;107809;-80
2021/11/08 12:06:06;;;;;;;7.70;4.70;;;;;;;10.08;73.47;100249.65;139056;1191;107452;-80
2021/11/08 12:09:17;;;;;;;8.60;5.70;;;;;;;10.16;73.57;100251.22;139124;1190;108075;-78
2021/11/08 12:12:27;;;;;;;10.50;8.20;;;;;;;10.24;73.59;100249.23;139171;1183;107082;-82
2021/11/08 12:15:35;;;;;;;15.90;14.10;;;;;;;10.28;73.58;100250.44;139021;1190;108667;-78
2021/11/08 12:18:46;;;;;;;107.90;73.60;;;;;;;10.31;73.32;100249.65;138980;1183;110075;-81
2021/11/08 12:21:52;;;;;;;105.50;76.90;;;;;;;10.34;73.61;100254.66;139071;1190;108437;-81
2021/11/08 12:25:00;;;;;;;55.80;39.30;;;;;;;10.37;73.35;100253.48;139305;1190;108603;-81
2021/11/08 12:28:12;;;;;;;24.90;19.40;;;;;;;10.29;73.20;100254.39;139020;1190;108550;-81
2021/11/08 12:31:23;;;;;;;11.90;8.20;;;;;;;10.20;73.30;100254.52;139037;1184;108467;-80
2021/11/08 12:34:31;;;;;;;10.90;7.30;;;;;;;10.18;73.13;100256.73;139062;1190;108631;-80
2021/11/08 12:37:37;;;;;;;9.00;6.20;;;;;;;10.19;73.31;100255.35;139106;1190;108465;-80
2021/11/08 12:40:43;;;;;;;7.10;5.80;;;;;;;10.24;73.03;100255.60;139089;1190;106463;-80
2021/11/08 12:43:56;;;;;;;6.90;5.20;;;;;;;10.21;73.02;100254.96;139098;1190;108208;-80
2021/11/08 12:47:02;;;;;;;5.20;4.70;;;;;;;10.22;72.58;100258.11;139129;1190;108555;-81
2021/11/08 12:50:10;;;;;;;9.80;8.70;;;;;;;10.21;72.82;100255.86;139074;1190;108395;-80
2021/11/08 12:53:27;;;;;;;5.20;4.30;;;;;;;10.20;72.69;100261.09;139091;1193;109341;-81
2021/11/08 12:56:40;;;;;;;7.40;4.10;;;;;;;10.21;72.73;100256.27;139131;1190;108384;-81
2021/11/08 12:59:48;;;;;;;6.60;4.30;;;;;;;10.23;72.65;100262.05;139112;1190;108424;-80
2021/11/08 13:02:56;;;;;;;5.80;4.60;;;;;;;10.28;72.15;100265.73;139187;1190;108514;-80
2021/11/08 13:06:04;;;;;;;10.30;7.50;;;;;;;10.24;72.11;100268.77;139133;1190;108210;-81
2021/11/08 13:09:14;;;;;;;9.00;5.70;;;;;;;10.17;72.47;100267.86;139189;1190;107491;-81
2021/11/08 13:12:23;;;;;;;5.80;5.00;;;;;;;10.20;72.25;100269.33;139198;1190;107860;-78
2021/11/08 13:15:31;;;;;;;6.00;5.00;;;;;;;10.20;72.46;100270.09;139052;1190;108298;-81
2021/11/08 13:18:42;;;;;;;11.10;8.40;;;;;;;10.15;72.33;100273.42;139026;1190;108292;-80
2021/11/08 13:21:48;;;;;;;31.30;17.40;;;;;;;10.08;72.26;100277.27;139100;1190;107762;-80
2021/11/08 13:25:03;;;;;;;24.10;16.80;;;;;;;10.00;72.40;100274.80;139072;1190;107394;-81
2021/11/08 13:28:11;;;;;;;12.50;7.70;;;;;;;9.99;72.27;100275.95;139181;1190;108439;-81
2021/11/08 13:31:17;;;;;;;13.20;11.80;;;;;;;10.01;72.21;100276.27;139151;1190;108647;-80
2021/11/08 13:34:23;;;;;;;39.90;30.30;;;;;;;10.04;72.14;100277.27;139017;1190;108586;-81
2021/11/08 13:37:38;;;;;;;26.70;16.00;;;;;;;10.03;72.15;100278.23;139096;1190;108293;-81
2021/11/08 13:40:46;;;;;;;101.40;61.40;;;;;;;10.00;72.03;100278.06;139097;1190;108622;-81
2021/11/08 13:43:54;;;;;;;59.20;38.70;;;;;;;10.01;72.26;100279.54;139061;1190;107422;-79
2021/11/08 13:46:59;;;;;;;69.40;42.80;;;;;;;10.00;72.29;100279.95;138976;1190;107268;-80
2021/11/08 13:50:13;;;;;;;129.90;83.10;;;;;;;10.01;72.00;100279.73;139085;1190;108368;-80
2021/11/08 13:53:22;;;;;;;166.70;107.30;;;;;;;10.00;72.14;100283.20;139075;1190;108479;-81
2021/11/08 13:56:34;;;;;;;102.70;66.00;;;;;;;10.04;71.86;100282.46;139092;1190;108404;-81
2021/11/08 13:59:42;;;;;;;171.60;112.30;;;;;;;10.08;72.10;100282.95;139162;1190;108490;-81
2021/11/08 14:02:48;;;;;;;146.90;95.00;;;;;;;10.10;72.14;100285.90;139119;1190;108253;-78
2021/11/08 14:05:55;;;;;;;142.30;90.80;;;;;;;10.10;72.18;100291.07;139091;1190;108355;-79
2021/11/08 14:09:02;;;;;;;85.20;52.90;;;;;;;10.08;72.16;100296.42;139018;1190;108473;-81
2021/11/08 14:12:14;;;;;;;46.70;29.40;;;;;;;9.94;71.75;100301.85;139023;1190;108440;-80
2021/11/08 14:15:20;;;;;;;475.00;219.60;;;;;;;9.82;72.36;100306.25;139140;1190;108255;-80
2021/11/08 14:18:25;;;;;;;46.30;26.30;;;;;;;9.79;72.27;100310.75;139086;1190;108480;-79
2021/11/08 14:21:32;;;;;;;17.20;9.60;;;;;;;9.79;72.26;100314.32;139063;1190;108366;-80
2021/11/08 14:24:42;;;;;;;14.10;8.00;;;;;;;9.73;72.18;100317.60;139347;1190;107421;-80
2021/11/08 14:27:49;;;;;;;9.70;6.90;;;;;;;9.71;72.31;100319.00;139061;1190;108512;-80
2021/11/08 14:30:54;;;;;;;10.10;6.70;;;;;;;9.68;72.36;100318.10;139130;1190;107919;-80
2021/11/08 14:34:02;;;;;;;13.70;8.80;;;;;;;9.61;72.44;100319.97;139191;1193;107942;-80
2021/11/08 14:37:14;;;;;;;16.00;11.20;;;;;;;9.54;72.54;100319.02;139082;1193;108697;-80
2021/11/08 14:40:23;;;;;;;11.70;7.30;;;;;;;9.50;72.66;100317.51;139233;1190;107574;-80
2021/11/08 14:43:30;;;;;;;7.40;5.20;;;;;;;9.48;72.52;100319.55;139125;1190;108914;-80
2021/11/08 14:46:44;;;;;;;220.20;107.90;;;;;;;9.49;72.52;100325.20;139079;1190;108483;-79
2021/11/08 14:49:59;;;;;;;26.60;13.60;;;;;;;9.50;72.61;100328.64;138965;1190;108476;-79
2021/11/08 14:53:10;;;;;;;12.30;8.50;;;;;;;9.52;72.80;100332.67;139193;1190;108500;-80
2021/11/08 14:56:24;;;;;;;39.40;18.40;;;;;;;9.50;72.66;100338.92;139096;1190;108531;-81
2021/11/08 14:59:35;;;;;;;17.00;10.70;;;;;;;9.40;72.86;100344.61;139120;1190;107592;-80
2021/11/08 15:02:42;;;;;;;165.00;114.50;;;;;;;9.36;72.99;100342.38;139129;1176;108477;-81
2021/11/08 15:05:49;;;;;;;61.20;40.40;;;;;;;9.32;72.82;100345.25;139130;1190;108420;-80
2021/11/08 15:09:08;;;;;;;70.60;43.60;;;;;;;9.27;72.92;100342.13;139068;1190;107513;-80
2021/11/08 15:12:22;;;;;;;23.30;16.40;;;;;;;9.26;72.89;100340.28;139267;1190;108511;-80
2021/11/08 15:15:31;;;;;;;374.10;277.40;;;;;;;9.31;72.95;100339.43;139248;1190;108374;-80
2021/11/08 15:18:36;;;;;;;388.40;265.60;;;;;;;9.35;72.81;100342.13;139816;1190;107466;-81
2021/11/08 15:21:46;;;;;;;157.70;103.00;;;;;;;9.37;72.86;100344.95;139151;1190;107383;-83
2021/11/08 15:24:52;;;;;;;67.00;42.80;;;;;;;9.37;72.78;100346.13;139283;1190;106638;-80
2021/11/08 15:28:04;;;;;;;117.00;76.30;;;;;;;9.34;72.78;100347.20;139116;1191;108513;-83